createdAt,value
2018-08-07T00:00:13.598Z,12.93
2018-08-07T00:01:13.643Z,12.85
2018-08-07T00:02:13.861Z,12.91
2018-08-07T00:03:13.848Z,12.88
2018-08-07T00:04:13.592Z,12.99
2018-08-07T00:05:13.601Z,12.9
2018-08-07T00:06:13.627Z,13.01
2018-08-07T00:07:13.628Z,13.03
2018-08-07T00:08:13.855Z,13.1
2018-08-07T00:09:13.676Z,13.16
2018-08-07T00:10:13.663Z,13.22
2018-08-07T00:11:13.797Z,13.29
2018-08-07T00:12:13.705Z,13.27
2018-08-07T00:13:13.706Z,13.39
2018-08-07T00:14:13.619Z,13.45
2018-08-07T00:15:13.674Z,13.51
2018-08-07T00:16:13.629Z,13.51
2018-08-07T00:17:13.805Z,13.51
2018-08-07T00:18:13.750Z,13.45
2018-08-07T00:19:13.738Z,13.36
2018-08-07T00:20:13.695Z,13.46
2018-08-07T00:21:13.624Z,13.47
2018-08-07T00:22:13.648Z,13.39
2018-08-07T00:23:13.748Z,13.28
2018-08-07T00:24:13.661Z,13.17
2018-08-07T00:25:13.704Z,13.15
2018-08-07T00:26:13.797Z,13.28
2018-08-07T00:27:13.853Z,13.23
2018-08-07T00:28:13.644Z,13.09
2018-08-07T00:29:13.657Z,13.04
2018-08-07T00:30:13.716Z,12.99
2018-08-07T00:31:13.693Z,12.85
2018-08-07T00:32:13.660Z,12.94
2018-08-07T00:33:13.690Z,12.81
2018-08-07T00:34:13.674Z,12.83
2018-08-07T00:35:13.742Z,12.83
2018-08-07T00:36:13.658Z,12.71
2018-08-07T00:37:13.661Z,12.64
2018-08-07T00:38:13.640Z,12.67
2018-08-07T00:39:13.706Z,12.7
2018-08-07T00:40:13.701Z,12.64
2018-08-07T00:41:13.672Z,12.65
2018-08-07T00:42:13.689Z,12.84
2018-08-07T00:43:13.723Z,12.73
2018-08-07T00:44:13.681Z,12.66
2018-08-07T00:45:13.699Z,12.72
2018-08-07T00:46:13.640Z,12.62
2018-08-07T00:47:13.682Z,12.53
2018-08-07T00:48:13.691Z,12.69
2018-08-07T00:49:13.718Z,12.6
2018-08-07T00:50:13.895Z,12.68
2018-08-07T00:51:13.764Z,12.59
2018-08-07T00:52:13.698Z,12.54
2018-08-07T00:53:13.777Z,12.68
2018-08-07T00:54:13.768Z,12.65
2018-08-07T00:55:13.785Z,12.6
2018-08-07T00:56:13.672Z,12.61
2018-08-07T00:57:13.738Z,12.61
2018-08-07T00:58:13.705Z,12.59
2018-08-07T00:59:13.660Z,12.66
2018-08-07T01:00:13.743Z,12.56
2018-08-07T01:01:13.683Z,12.67
2018-08-07T01:02:13.747Z,12.66
2018-08-07T01:03:13.719Z,12.63
2018-08-07T01:04:13.684Z,12.68
2018-08-07T01:05:13.701Z,12.53
2018-08-07T01:06:13.666Z,12.72
2018-08-07T01:07:14.068Z,12.64
2018-08-07T01:08:13.704Z,12.61
2018-08-07T01:09:13.686Z,12.67
2018-08-07T01:10:13.703Z,12.61
2018-08-07T01:11:13.699Z,12.64
2018-08-07T01:12:13.709Z,12.56
2018-08-07T01:13:13.721Z,12.53
2018-08-07T01:14:13.720Z,12.65
2018-08-07T01:15:13.705Z,12.59
2018-08-07T01:16:13.706Z,12.63
2018-08-07T01:17:13.689Z,12.57
2018-08-07T01:18:13.711Z,12.55
2018-08-07T01:19:13.714Z,12.66
2018-08-07T01:20:13.758Z,12.55
2018-08-07T01:21:13.712Z,12.57
2018-08-07T01:22:13.708Z,12.54
2018-08-07T01:23:13.745Z,12.49
2018-08-07T01:24:13.701Z,12.62
2018-08-07T01:25:13.755Z,12.71
2018-08-07T01:26:13.737Z,12.69
2018-08-07T01:27:13.727Z,12.61
2018-08-07T01:28:13.713Z,12.64
2018-08-07T01:29:13.749Z,12.64
2018-08-07T01:30:13.792Z,12.66
2018-08-07T01:31:13.799Z,12.61
2018-08-07T01:32:13.739Z,12.54
2018-08-07T01:33:13.767Z,12.66
2018-08-07T01:34:13.744Z,12.62
2018-08-07T01:35:13.725Z,12.72
2018-08-07T01:36:13.719Z,12.57
2018-08-07T01:37:13.761Z,12.54
2018-08-07T01:38:13.976Z,12.7
2018-08-07T01:39:13.734Z,12.65
2018-08-07T01:40:13.745Z,12.53
2018-08-07T01:41:13.717Z,12.58
2018-08-07T01:42:13.744Z,12.59
2018-08-07T01:43:13.780Z,12.62
2018-08-07T01:44:13.758Z,12.62
2018-08-07T01:45:13.806Z,12.57
2018-08-07T01:46:13.805Z,12.64
2018-08-07T01:47:13.844Z,12.58
2018-08-07T01:48:13.742Z,12.59
2018-08-07T01:49:13.759Z,12.67
2018-08-07T01:50:13.841Z,12.71
2018-08-07T01:51:13.752Z,12.64
2018-08-07T01:52:13.776Z,12.69
2018-08-07T01:53:13.810Z,12.59
2018-08-07T01:54:13.772Z,12.62
2018-08-07T01:55:13.812Z,12.66
2018-08-07T01:56:13.812Z,12.61
2018-08-07T01:57:13.826Z,12.56
2018-08-07T01:58:13.747Z,12.61
2018-08-07T01:59:13.791Z,12.56
2018-08-07T02:00:13.918Z,12.71
2018-08-07T02:01:13.823Z,12.67
2018-08-07T02:02:13.766Z,12.8
2018-08-07T02:03:13.756Z,12.69
2018-08-07T02:04:13.769Z,12.6
2018-08-07T02:05:13.794Z,12.69
2018-08-07T02:06:13.866Z,12.77
2018-08-07T02:07:13.780Z,12.64
2018-08-07T02:08:13.995Z,12.61
2018-08-07T02:09:13.786Z,12.69
2018-08-07T02:10:13.782Z,12.67
2018-08-07T02:11:14.061Z,12.67
2018-08-07T02:12:13.794Z,12.69
2018-08-07T02:13:13.818Z,12.68
2018-08-07T02:14:13.792Z,12.73
2018-08-07T02:15:13.799Z,12.63
2018-08-07T02:16:13.853Z,12.7
2018-08-07T02:17:13.783Z,12.74
2018-08-07T02:18:13.770Z,12.67
2018-08-07T02:19:13.837Z,12.72
2018-08-07T02:20:13.823Z,12.62
2018-08-07T02:21:13.842Z,12.62
2018-08-07T02:22:13.793Z,12.63
2018-08-07T02:23:13.781Z,12.61
2018-08-07T02:24:13.817Z,12.65
2018-08-07T02:25:13.825Z,12.73
2018-08-07T02:26:13.816Z,12.66
2018-08-07T02:27:13.782Z,12.69
2018-08-07T02:28:13.820Z,12.72
2018-08-07T02:29:13.787Z,12.66
2018-08-07T02:30:13.826Z,12.68
2018-08-07T02:31:13.837Z,12.74
2018-08-07T02:32:13.825Z,12.72
2018-08-07T02:33:13.828Z,12.73
2018-08-07T02:34:13.859Z,12.77
2018-08-07T02:35:13.791Z,12.68
2018-08-07T02:36:13.789Z,12.68
2018-08-07T02:37:13.805Z,12.7
2018-08-07T02:38:13.863Z,12.76
2018-08-07T02:39:13.817Z,12.76
2018-08-07T02:40:13.979Z,12.63
2018-08-07T02:41:13.853Z,12.85
2018-08-07T02:42:13.941Z,12.81
2018-08-07T02:43:13.837Z,12.72
2018-08-07T02:44:13.912Z,12.85
2018-08-07T02:45:13.825Z,12.76
2018-08-07T02:46:13.813Z,12.9
2018-08-07T02:47:13.844Z,12.83
2018-08-07T02:48:13.827Z,12.76
2018-08-07T02:49:13.879Z,12.81
2018-08-07T02:50:13.870Z,12.88
2018-08-07T02:51:13.870Z,12.83
2018-08-07T02:52:13.909Z,12.8
2018-08-07T02:53:13.868Z,12.87
2018-08-07T02:54:13.852Z,12.8
2018-08-07T02:55:14.095Z,12.79
2018-08-07T02:56:14.088Z,12.91
2018-08-07T02:57:13.883Z,12.9
2018-08-07T02:58:14.042Z,12.84
2018-08-07T02:59:13.842Z,12.84
2018-08-07T03:00:13.909Z,12.95
2018-08-07T03:01:13.856Z,12.88
2018-08-07T03:02:14.052Z,12.81
2018-08-07T03:03:14.080Z,12.8
2018-08-07T03:04:13.866Z,12.81
2018-08-07T03:05:13.904Z,12.86
2018-08-07T03:06:14.057Z,12.83
2018-08-07T03:07:13.894Z,12.82
2018-08-07T03:08:13.938Z,12.74
2018-08-07T03:09:13.943Z,12.84
2018-08-07T03:10:13.883Z,12.84
2018-08-07T03:11:13.874Z,12.84
2018-08-07T03:12:14.000Z,12.75
2018-08-07T03:13:13.873Z,12.84
2018-08-07T03:14:13.875Z,12.88
2018-08-07T03:15:13.894Z,12.79
2018-08-07T03:16:14.073Z,12.74
2018-08-07T03:17:13.924Z,12.83
2018-08-07T03:18:13.882Z,12.9
2018-08-07T03:19:14.049Z,12.8
2018-08-07T03:20:14.028Z,12.81
2018-08-07T03:21:13.911Z,12.86
2018-08-07T03:22:13.888Z,12.74
2018-08-07T03:23:13.905Z,12.77
2018-08-07T03:24:14.059Z,12.97
2018-08-07T03:25:13.989Z,12.87
2018-08-07T03:26:13.867Z,12.89
2018-08-07T03:27:13.854Z,12.9
2018-08-07T03:28:13.885Z,12.91
2018-08-07T03:29:13.864Z,12.85
2018-08-07T03:30:14.091Z,12.87
2018-08-07T03:31:13.890Z,12.92
2018-08-07T03:32:13.892Z,12.9
2018-08-07T03:33:14.052Z,12.86
2018-08-07T03:34:14.026Z,12.81
2018-08-07T03:35:14.054Z,12.88
2018-08-07T03:36:13.884Z,12.89
2018-08-07T03:37:13.899Z,12.92
2018-08-07T03:38:13.928Z,12.86
2018-08-07T03:39:13.897Z,12.95
2018-08-07T03:40:13.901Z,12.99
2018-08-07T03:41:13.926Z,12.99
2018-08-07T03:42:13.902Z,13.04
2018-08-07T03:43:13.914Z,13
2018-08-07T03:44:13.901Z,12.92
2018-08-07T03:45:13.947Z,12.9
2018-08-07T03:46:13.915Z,12.91
2018-08-07T03:47:13.929Z,12.86
2018-08-07T03:48:14.068Z,12.98
2018-08-07T03:49:14.156Z,13
2018-08-07T03:50:13.914Z,13.03
2018-08-07T03:51:13.895Z,12.95
2018-08-07T03:52:13.915Z,12.96
2018-08-07T03:53:14.213Z,13.01
2018-08-07T03:54:13.903Z,13.08
2018-08-07T03:55:13.908Z,12.86
2018-08-07T03:56:13.939Z,12.94
2018-08-07T03:57:14.045Z,12.9
2018-08-07T03:58:14.068Z,13.01
2018-08-07T03:59:13.937Z,12.94
2018-08-07T04:00:13.989Z,12.86
2018-08-07T04:01:14.038Z,12.91
2018-08-07T04:02:13.940Z,12.91
2018-08-07T04:03:14.041Z,12.86
2018-08-07T04:04:14.013Z,12.85
2018-08-07T04:05:13.945Z,12.81
2018-08-07T04:06:14.224Z,12.91
2018-08-07T04:07:14.052Z,12.86
2018-08-07T04:08:14.160Z,12.92
2018-08-07T04:09:14.024Z,12.93
2018-08-07T04:10:13.975Z,12.96
2018-08-07T04:11:14.032Z,13.01
2018-08-07T04:12:13.937Z,12.88
2018-08-07T04:13:14.033Z,12.95
2018-08-07T04:14:14.072Z,12.95
2018-08-07T04:15:14.117Z,12.96
2018-08-07T04:16:14.184Z,12.95
2018-08-07T04:17:14.033Z,12.95
2018-08-07T04:18:13.954Z,12.89
2018-08-07T04:19:14.080Z,12.83
2018-08-07T04:20:14.088Z,12.92
2018-08-07T04:21:13.999Z,12.9
2018-08-07T04:22:13.978Z,12.9
2018-08-07T04:23:14.102Z,12.88
2018-08-07T04:24:14.452Z,13.01
2018-08-07T04:25:13.969Z,12.93
2018-08-07T04:26:13.978Z,12.85
2018-08-07T04:27:14.125Z,12.97
2018-08-07T04:28:14.131Z,12.87
2018-08-07T04:29:14.078Z,12.91
2018-08-07T04:30:14.136Z,13.02
2018-08-07T04:31:14.151Z,12.93
2018-08-07T04:32:14.066Z,12.96
2018-08-07T04:33:14.137Z,12.91
2018-08-07T04:34:13.998Z,12.89
2018-08-07T04:35:14.069Z,13.06
2018-08-07T04:36:13.972Z,12.92
2018-08-07T04:37:14.043Z,12.94
2018-08-07T04:38:14.064Z,12.99
2018-08-07T04:39:14.176Z,12.88
2018-08-07T04:40:14.229Z,13.02
2018-08-07T04:41:14.132Z,12.89
2018-08-07T04:42:13.987Z,12.84
2018-08-07T04:43:14.120Z,12.91
2018-08-07T04:44:13.994Z,12.92
2018-08-07T04:45:14.183Z,12.82
2018-08-07T04:46:14.214Z,13.04
2018-08-07T04:47:14.121Z,12.95
2018-08-07T04:48:14.017Z,12.93
2018-08-07T04:49:14.000Z,13.08
2018-08-07T04:50:14.016Z,12.98
2018-08-07T04:51:14.042Z,12.98
2018-08-07T04:52:14.028Z,12.99
2018-08-07T04:53:14.112Z,13
2018-08-07T04:54:14.052Z,12.99
2018-08-07T04:55:14.114Z,13.05
2018-08-07T04:56:14.002Z,13.04
2018-08-07T04:57:14.040Z,13.01
2018-08-07T04:58:13.975Z,13.03
2018-08-07T04:59:13.998Z,12.99
2018-08-07T05:00:14.041Z,13
2018-08-07T05:01:14.003Z,13.01
2018-08-07T05:02:14.018Z,13.09
2018-08-07T05:03:14.024Z,13.07
2018-08-07T05:04:14.000Z,13.06
2018-08-07T05:05:14.278Z,13.06
2018-08-07T05:06:14.042Z,13.13
2018-08-07T05:07:14.014Z,13.08
2018-08-07T05:08:14.051Z,13.18
2018-08-07T05:09:13.995Z,13.01
2018-08-07T05:10:14.369Z,13.01
2018-08-07T05:11:14.019Z,12.99
2018-08-07T05:12:14.187Z,13.06
2018-08-07T05:13:14.130Z,13.05
2018-08-07T05:14:14.512Z,13.16
2018-08-07T05:15:14.132Z,13.17
2018-08-07T05:16:14.258Z,13.16
2018-08-07T05:17:14.118Z,13.06
2018-08-07T05:18:14.124Z,13.09
2018-08-07T05:19:14.058Z,13.11
2018-08-07T05:20:14.142Z,13.17
2018-08-07T05:21:14.070Z,13.15
2018-08-07T05:22:14.068Z,13.22
2018-08-07T05:23:14.162Z,13.12
2018-08-07T05:24:14.169Z,13.15
2018-08-07T05:25:14.148Z,13.23
2018-08-07T05:26:14.108Z,13.29
2018-08-07T05:27:14.115Z,13.2
2018-08-07T05:28:14.104Z,13.31
2018-08-07T05:29:14.058Z,13.27
2018-08-07T05:30:14.618Z,13.26
2018-08-07T05:31:14.102Z,13.28
2018-08-07T05:32:14.048Z,13.29
2018-08-07T05:33:14.065Z,13.3
2018-08-07T05:34:14.100Z,13.21
2018-08-07T05:35:14.340Z,13.22
2018-08-07T05:36:14.186Z,13.21
2018-08-07T05:37:14.101Z,13.2
2018-08-07T05:38:14.181Z,13.26
2018-08-07T05:39:14.049Z,13.27
2018-08-07T05:40:14.105Z,13.38
2018-08-07T05:41:14.071Z,13.35
2018-08-07T05:42:14.255Z,13.47
2018-08-07T05:43:14.126Z,13.39
2018-08-07T05:44:14.135Z,13.52
2018-08-07T05:45:14.387Z,13.44
2018-08-07T05:46:14.092Z,13.66
2018-08-07T05:47:14.089Z,13.62
2018-08-07T05:48:14.099Z,13.56
2018-08-07T05:49:14.274Z,13.54
2018-08-07T05:50:15.667Z,13.52
2018-08-07T05:51:17.911Z,13.47
2018-08-07T05:52:14.116Z,13.56
2018-08-07T05:53:14.152Z,13.59
2018-08-07T05:54:14.158Z,13.46
2018-08-07T05:55:15.310Z,13.62
2018-08-07T05:56:14.117Z,13.64
2018-08-07T05:57:14.091Z,13.52
2018-08-07T05:58:14.197Z,13.68
2018-08-07T05:59:14.317Z,13.64
2018-08-07T06:00:14.281Z,13.62
2018-08-07T06:01:14.132Z,13.61
2018-08-07T06:02:14.066Z,13.6
2018-08-07T06:03:14.075Z,13.69
2018-08-07T06:04:14.100Z,13.59
2018-08-07T06:05:14.325Z,13.63
2018-08-07T06:06:14.227Z,13.67
2018-08-07T06:07:14.096Z,13.6
2018-08-07T06:08:14.069Z,13.64
2018-08-07T06:09:14.115Z,13.61
2018-08-07T06:10:14.367Z,13.64
2018-08-07T06:11:14.290Z,13.69
2018-08-07T06:12:14.097Z,13.66
2018-08-07T06:13:14.104Z,13.73
2018-08-07T06:14:14.083Z,13.67
2018-08-07T06:15:14.174Z,13.75
2018-08-07T06:16:14.115Z,13.78
2018-08-07T06:17:14.167Z,13.8
2018-08-07T06:18:14.148Z,13.76
2018-08-07T06:19:14.785Z,13.74
2018-08-07T06:20:14.131Z,13.75
2018-08-07T06:21:14.120Z,13.7
2018-08-07T06:22:14.110Z,13.74
2018-08-07T06:23:14.116Z,13.85
2018-08-07T06:24:14.124Z,13.69
2018-08-07T06:25:14.116Z,13.7
2018-08-07T06:26:14.304Z,13.73
2018-08-07T06:27:14.121Z,13.72
2018-08-07T06:28:14.109Z,13.71
2018-08-07T06:29:14.116Z,13.66
2018-08-07T06:30:14.214Z,13.64
2018-08-07T06:31:14.218Z,13.61
2018-08-07T06:32:14.164Z,13.7
2018-08-07T06:33:14.123Z,13.68
2018-08-07T06:34:14.117Z,13.65
2018-08-07T06:35:14.124Z,13.71
2018-08-07T06:36:14.203Z,13.72
2018-08-07T06:37:15.084Z,13.73
2018-08-07T06:38:14.157Z,13.75
2018-08-07T06:39:14.129Z,13.74
2018-08-07T06:40:14.346Z,13.8
2018-08-07T06:41:14.317Z,13.8
2018-08-07T06:42:14.334Z,13.87
2018-08-07T06:43:14.474Z,13.84
2018-08-07T06:44:14.131Z,13.87
2018-08-07T06:45:14.147Z,13.86
2018-08-07T06:46:14.136Z,13.98
2018-08-07T06:47:14.200Z,13.95
2018-08-07T06:48:14.126Z,13.89
2018-08-07T06:49:14.155Z,13.85
2018-08-07T06:50:14.696Z,13.89
2018-08-07T06:51:14.137Z,13.81
2018-08-07T06:52:14.210Z,13.82
2018-08-07T06:53:14.313Z,13.93
2018-08-07T06:54:14.152Z,13.96
2018-08-07T06:55:14.462Z,14.04
2018-08-07T06:56:14.155Z,14
2018-08-07T06:57:14.626Z,13.96
2018-08-07T06:58:14.215Z,13.96
2018-08-07T06:59:14.211Z,13.99
2018-08-07T07:00:14.197Z,14.04
2018-08-07T07:01:14.161Z,14.02
2018-08-07T07:02:14.274Z,14.02
2018-08-07T07:03:14.347Z,14.03
2018-08-07T07:04:14.200Z,13.98
2018-08-07T07:05:14.463Z,13.98
2018-08-07T07:06:14.207Z,14.05
2018-08-07T07:07:14.178Z,14.03
2018-08-07T07:08:14.171Z,14.03
2018-08-07T07:09:14.153Z,14
2018-08-07T07:10:14.231Z,14.01
2018-08-07T07:11:14.190Z,14.09
2018-08-07T07:12:14.362Z,14.12
2018-08-07T07:13:14.312Z,14.13
2018-08-07T07:14:14.255Z,14.04
2018-08-07T07:15:14.292Z,14.09
2018-08-07T07:16:14.218Z,14.14
2018-08-07T07:17:14.166Z,14.17
2018-08-07T07:18:14.162Z,14.16
2018-08-07T07:19:14.360Z,14.19
2018-08-07T07:20:14.254Z,14.2
2018-08-07T07:21:14.416Z,14.23
2018-08-07T07:22:14.207Z,14.23
2018-08-07T07:23:14.184Z,14.3
2018-08-07T07:24:14.205Z,14.27
2018-08-07T07:25:14.186Z,14.27
2018-08-07T07:26:14.221Z,14.35
2018-08-07T07:27:14.465Z,14.37
2018-08-07T07:28:14.218Z,14.44
2018-08-07T07:29:14.214Z,14.34
2018-08-07T07:30:14.195Z,14.45
2018-08-07T07:31:14.366Z,14.36
2018-08-07T07:32:14.213Z,14.42
2018-08-07T07:33:14.207Z,14.33
2018-08-07T07:34:14.925Z,14.31
2018-08-07T07:35:14.206Z,14.35
2018-08-07T07:36:14.205Z,14.31
2018-08-07T07:37:14.211Z,14.34
2018-08-07T07:38:14.209Z,14.36
2018-08-07T07:39:14.203Z,14.32
2018-08-07T07:40:14.210Z,14.46
2018-08-07T07:41:14.197Z,14.32
2018-08-07T07:42:14.343Z,14.38
2018-08-07T07:43:14.537Z,14.46
2018-08-07T07:44:14.223Z,14.47
2018-08-07T07:45:14.255Z,14.57
2018-08-07T07:46:14.239Z,14.52
2018-08-07T07:47:14.277Z,14.65
2018-08-07T07:48:14.394Z,14.59
2018-08-07T07:49:14.307Z,14.62
2018-08-07T07:50:14.337Z,14.39
2018-08-07T07:51:14.273Z,14.46
2018-08-07T07:52:14.511Z,14.52
2018-08-07T07:53:14.240Z,14.47
2018-08-07T07:54:14.285Z,14.24
2018-08-07T07:55:14.279Z,14.49
2018-08-07T07:56:14.392Z,14.57
2018-08-07T07:57:14.252Z,14.61
2018-08-07T07:58:14.346Z,14.75
2018-08-07T07:59:14.281Z,14.73
2018-08-07T08:00:14.375Z,14.63
2018-08-07T08:01:14.288Z,14.66
2018-08-07T08:02:14.244Z,14.61
2018-08-07T08:03:14.419Z,14.73
2018-08-07T08:04:14.217Z,14.77
2018-08-07T08:05:14.577Z,14.59
2018-08-07T08:06:14.324Z,14.55
2018-08-07T08:07:14.237Z,14.58
2018-08-07T08:08:14.233Z,14.56
2018-08-07T08:09:14.240Z,14.6
2018-08-07T08:10:14.244Z,14.65
2018-08-07T08:11:14.443Z,14.49
2018-08-07T08:12:14.266Z,14.51
2018-08-07T08:13:14.230Z,14.65
2018-08-07T08:14:14.352Z,14.7
2018-08-07T08:15:14.328Z,14.59
2018-08-07T08:16:14.424Z,14.63
2018-08-07T08:17:14.373Z,14.57
2018-08-07T08:18:14.250Z,14.54
2018-08-07T08:19:14.239Z,14.55
2018-08-07T08:20:14.250Z,14.61
2018-08-07T08:21:14.352Z,14.72
2018-08-07T08:22:14.294Z,14.63
2018-08-07T08:23:14.676Z,14.65
2018-08-07T08:24:14.282Z,14.76
2018-08-07T08:25:14.534Z,14.65
2018-08-07T08:26:14.325Z,14.55
2018-08-07T08:27:14.309Z,14.74
2018-08-07T08:28:14.310Z,14.73
2018-08-07T08:29:15.349Z,14.7
2018-08-07T08:30:14.327Z,14.67
2018-08-07T08:31:14.391Z,14.64
2018-08-07T08:32:14.285Z,14.59
2018-08-07T08:33:14.508Z,14.63
2018-08-07T08:34:14.306Z,14.62
2018-08-07T08:35:14.616Z,14.69
2018-08-07T08:36:14.314Z,14.72
2018-08-07T08:37:14.433Z,14.69
2018-08-07T08:38:14.292Z,14.65
2018-08-07T08:39:14.292Z,14.7
2018-08-07T08:40:14.557Z,14.81
2018-08-07T08:41:14.297Z,14.74
2018-08-07T08:42:14.461Z,14.7
2018-08-07T08:43:14.267Z,14.71
2018-08-07T08:44:14.326Z,14.67
2018-08-07T08:45:14.328Z,14.77
2018-08-07T08:46:14.277Z,14.7
2018-08-07T08:47:14.306Z,14.69
2018-08-07T08:48:14.610Z,14.61
2018-08-07T08:49:14.315Z,14.59
2018-08-07T08:50:14.332Z,14.64
2018-08-07T08:51:14.285Z,14.65
2018-08-07T08:52:14.316Z,14.74
2018-08-07T08:53:14.317Z,14.73
2018-08-07T08:54:14.305Z,14.71
2018-08-07T08:55:14.349Z,14.67
2018-08-07T08:56:14.309Z,14.71
2018-08-07T08:57:14.291Z,14.8
2018-08-07T08:58:14.308Z,14.93
2018-08-07T08:59:15.095Z,14.69
2018-08-07T09:00:14.334Z,14.54
2018-08-07T09:01:14.331Z,14.59
2018-08-07T09:02:14.311Z,14.51
2018-08-07T09:03:14.317Z,14.58
2018-08-07T09:04:14.322Z,14.64
2018-08-07T09:05:14.367Z,14.6
2018-08-07T09:06:14.327Z,14.7
2018-08-07T09:07:14.334Z,14.53
2018-08-07T09:08:14.317Z,14.55
2018-08-07T09:09:14.354Z,14.65
2018-08-07T09:10:15.017Z,14.56
2018-08-07T09:11:14.332Z,14.46
2018-08-07T09:12:14.366Z,14.46
2018-08-07T09:13:14.420Z,14.47
2018-08-07T09:14:14.346Z,14.47
2018-08-07T09:15:14.364Z,14.5
2018-08-07T09:16:14.430Z,14.54
2018-08-07T09:17:14.633Z,14
2018-08-07T09:18:14.486Z,14.23
2018-08-07T09:19:14.335Z,14.25
2018-08-07T09:20:14.431Z,13.89
2018-08-07T09:21:14.341Z,13.57
2018-08-07T09:22:14.346Z,13.6
2018-08-07T09:23:14.378Z,13.63
2018-08-07T09:24:14.362Z,13.62
2018-08-07T09:25:14.896Z,13.73
2018-08-07T09:26:15.131Z,13.59
2018-08-07T09:27:14.436Z,13.66
2018-08-07T09:28:14.335Z,13.81
2018-08-07T09:29:14.355Z,13.74
2018-08-07T09:30:14.437Z,13.94
2018-08-07T09:31:14.369Z,13.87
2018-08-07T09:32:14.521Z,13.87
2018-08-07T09:33:14.491Z,13.45
2018-08-07T09:34:14.396Z,13.61
2018-08-07T09:35:14.361Z,13.43
2018-08-07T09:36:14.355Z,13.69
2018-08-07T09:37:14.383Z,13.58
2018-08-07T09:38:14.395Z,13.57
2018-08-07T09:39:14.348Z,13.74
2018-08-07T09:40:15.363Z,13.67
2018-08-07T09:41:14.663Z,13.55
2018-08-07T09:42:14.494Z,13.49
2018-08-07T09:43:14.429Z,13.53
2018-08-07T09:44:14.360Z,13.67
2018-08-07T09:45:14.384Z,13.63
2018-08-07T09:46:14.379Z,13.41
2018-08-07T09:47:14.419Z,13.65
2018-08-07T09:48:14.443Z,13.58
2018-08-07T09:49:14.464Z,13.36
2018-08-07T09:50:14.391Z,13.43
2018-08-07T09:51:14.484Z,13.28
2018-08-07T09:52:14.674Z,13.23
2018-08-07T09:53:14.562Z,13.35
2018-08-07T09:54:14.397Z,13.5
2018-08-07T09:55:14.518Z,13.53
2018-08-07T09:56:14.388Z,13.51
2018-08-07T09:57:14.394Z,13.59
2018-08-07T09:58:14.626Z,13.58
2018-08-07T09:59:14.384Z,13.27
2018-08-07T10:00:14.373Z,13.53
2018-08-07T10:01:14.371Z,13.6
2018-08-07T10:02:14.380Z,13.6
2018-08-07T10:03:14.392Z,13.53
2018-08-07T10:04:14.389Z,13.54
2018-08-07T10:05:15.262Z,13.61
2018-08-07T10:06:14.422Z,13.55
2018-08-07T10:07:14.419Z,13.66
2018-08-07T10:08:14.442Z,13.58
2018-08-07T10:09:14.431Z,13.45
2018-08-07T10:10:14.402Z,13.65
2018-08-07T10:11:14.375Z,13.51
2018-08-07T10:12:14.395Z,13.67
2018-08-07T10:13:14.430Z,13.74
2018-08-07T10:14:14.399Z,13.85
2018-08-07T10:15:14.413Z,13.82
2018-08-07T10:16:14.411Z,13.71
2018-08-07T10:17:14.465Z,13.73
2018-08-07T10:18:14.399Z,13.87
2018-08-07T10:19:14.511Z,13.78
2018-08-07T10:20:14.576Z,13.82
2018-08-07T10:21:14.532Z,13.71
2018-08-07T10:22:14.421Z,13.6
2018-08-07T10:23:14.700Z,13.83
2018-08-07T10:24:14.429Z,13.76
2018-08-07T10:25:14.408Z,13.84
2018-08-07T10:26:14.438Z,13.77
2018-08-07T10:27:14.557Z,13.81
2018-08-07T10:28:14.674Z,13.66
2018-08-07T10:29:14.439Z,13.55
2018-08-07T10:30:14.440Z,13.45
2018-08-07T10:31:14.475Z,13.68
2018-08-07T10:32:14.442Z,13.66
2018-08-07T10:33:14.421Z,13.59
2018-08-07T10:34:14.681Z,13.57
2018-08-07T10:35:14.457Z,13.64
2018-08-07T10:36:14.483Z,13.75
2018-08-07T10:37:14.536Z,13.75
2018-08-07T10:38:14.440Z,13.82
2018-08-07T10:39:14.630Z,13.75
2018-08-07T10:40:15.038Z,13.87
2018-08-07T10:41:15.954Z,13.64
2018-08-07T10:42:14.458Z,13.61
2018-08-07T10:43:15.590Z,13.7
2018-08-07T10:44:15.273Z,13.71
2018-08-07T10:45:14.475Z,13.74
2018-08-07T10:46:14.509Z,13.8
2018-08-07T10:47:14.497Z,13.76
2018-08-07T10:48:14.438Z,13.74
2018-08-07T10:49:14.497Z,13.81
2018-08-07T10:50:14.461Z,13.77
2018-08-07T10:51:14.492Z,13.81
2018-08-07T10:52:14.947Z,13.77
2018-08-07T10:53:14.464Z,13.61
2018-08-07T10:54:14.460Z,13.69
2018-08-07T10:55:14.504Z,13.6
2018-08-07T10:56:14.485Z,13.63
2018-08-07T10:57:14.656Z,13.51
2018-08-07T10:58:15.068Z,13.86
2018-08-07T10:59:14.497Z,13.55
2018-08-07T11:00:14.587Z,13.63
2018-08-07T11:01:14.748Z,13.64
2018-08-07T11:02:14.617Z,13.68
2018-08-07T11:03:14.647Z,13.58
2018-08-07T11:04:14.515Z,13.58
2018-08-07T11:05:14.548Z,13.81
2018-08-07T11:06:14.528Z,13.6
2018-08-07T11:07:14.539Z,13.7
2018-08-07T11:08:14.502Z,13.88
2018-08-07T11:09:14.471Z,13.81
2018-08-07T11:10:14.566Z,13.7
2018-08-07T11:11:14.503Z,14
2018-08-07T11:12:14.575Z,13.88
2018-08-07T11:13:14.864Z,13.93
2018-08-07T11:14:14.505Z,13.96
2018-08-07T11:15:14.516Z,13.98
2018-08-07T11:16:14.481Z,14.14
2018-08-07T11:17:14.563Z,13.94
2018-08-07T11:18:14.531Z,13.99
2018-08-07T11:19:14.554Z,13.93
2018-08-07T11:20:14.578Z,14.01
2018-08-07T11:21:14.491Z,13.98
2018-08-07T11:22:14.505Z,13.89
2018-08-07T11:23:14.526Z,13.82
2018-08-07T11:24:14.486Z,13.87
2018-08-07T11:25:14.589Z,13.85
2018-08-07T11:26:14.502Z,13.76
2018-08-07T11:27:14.492Z,13.64
2018-08-07T11:28:14.789Z,13.78
2018-08-07T11:29:14.508Z,13.93
2018-08-07T11:30:14.543Z,14.01
2018-08-07T11:31:14.497Z,14.07
2018-08-07T11:32:14.555Z,13.89
2018-08-07T11:33:14.700Z,13.87
2018-08-07T11:34:14.518Z,13.7
2018-08-07T11:35:14.564Z,13.76
2018-08-07T11:36:14.629Z,13.61
2018-08-07T11:37:14.513Z,13.8
2018-08-07T11:38:14.700Z,13.81
2018-08-07T11:39:14.515Z,13.43
2018-08-07T11:40:14.684Z,13.51
2018-08-07T11:41:14.788Z,13.79
2018-08-07T11:42:14.652Z,13.84
2018-08-07T11:43:14.560Z,13.63
2018-08-07T11:44:14.521Z,13.6
2018-08-07T11:45:14.528Z,13.6
2018-08-07T11:46:14.536Z,13.58
2018-08-07T11:47:14.601Z,13.77
2018-08-07T11:48:15.000Z,13.57
2018-08-07T11:49:14.522Z,13.82
2018-08-07T11:50:14.558Z,13.73
2018-08-07T11:51:14.535Z,13.59
2018-08-07T11:52:14.527Z,13.65
2018-08-07T11:53:14.596Z,13.61
2018-08-07T11:54:14.575Z,13.83
2018-08-07T11:55:14.590Z,13.71
2018-08-07T11:56:14.752Z,13.7
2018-08-07T11:57:14.556Z,13.56
2018-08-07T11:58:14.582Z,13.36
2018-08-07T11:59:14.594Z,13.29
2018-08-07T12:00:14.803Z,13.52
2018-08-07T12:01:14.546Z,13.36
2018-08-07T12:02:14.677Z,13.58
2018-08-07T12:03:14.599Z,13.46
2018-08-07T12:04:14.557Z,13.66
2018-08-07T12:05:14.563Z,13.74
2018-08-07T12:06:14.566Z,13.76
2018-08-07T12:07:14.827Z,13.67
2018-08-07T12:08:14.562Z,13.64
2018-08-07T12:09:14.568Z,13.68
2018-08-07T12:10:14.672Z,13.69
2018-08-07T12:11:14.612Z,13.52
2018-08-07T12:12:14.662Z,13.63
2018-08-07T12:13:14.592Z,13.63
2018-08-07T12:14:14.643Z,13.8
2018-08-07T12:15:14.566Z,13.47
2018-08-07T12:16:14.968Z,13.35
2018-08-07T12:17:14.592Z,13.74
2018-08-07T12:18:14.615Z,13.8
2018-08-07T12:19:14.912Z,13.57
2018-08-07T12:20:14.583Z,13.48
2018-08-07T12:21:14.616Z,13.62
2018-08-07T12:22:14.612Z,13.46
2018-08-07T12:23:14.579Z,13.42
2018-08-07T12:24:14.644Z,13.83
2018-08-07T12:25:14.650Z,13.96
2018-08-07T12:26:14.610Z,13.65
2018-08-07T12:27:14.589Z,13.63
2018-08-07T12:28:14.632Z,13.59
2018-08-07T12:29:14.778Z,13.62
2018-08-07T12:30:14.586Z,13.66
2018-08-07T12:31:14.603Z,13.73
2018-08-07T12:32:14.584Z,13.88
2018-08-07T12:33:15.347Z,13.94
2018-08-07T12:34:14.597Z,13.92
2018-08-07T12:35:15.329Z,14.01
2018-08-07T12:36:14.601Z,13.76
2018-08-07T12:37:14.604Z,13.68
2018-08-07T12:38:14.609Z,13.63
2018-08-07T12:39:14.607Z,13.55
2018-08-07T12:40:14.600Z,13.66
2018-08-07T12:41:15.025Z,13.73
2018-08-07T12:42:14.641Z,13.77
2018-08-07T12:43:14.608Z,13.95
2018-08-07T12:44:14.633Z,13.7
2018-08-07T12:45:14.618Z,13.78
2018-08-07T12:46:14.641Z,13.62
2018-08-07T12:47:14.618Z,13.56
2018-08-07T12:48:14.629Z,13.75
2018-08-07T12:49:14.720Z,13.5
2018-08-07T12:50:14.640Z,13.64
2018-08-07T12:51:14.640Z,13.63
2018-08-07T12:52:14.727Z,13.77
2018-08-07T12:53:14.931Z,13.77
2018-08-07T12:54:14.656Z,13.84
2018-08-07T12:55:14.693Z,13.9